createdAt,value
2022-08-05T00:12:21.719Z,1017.28
2022-08-05T00:27:39.428Z,1017.26
2022-08-05T00:42:54.683Z,1017.18
2022-08-05T00:58:11.166Z,1017.14
2022-08-05T01:13:58.834Z,1017.03
2022-08-05T01:28:43.561Z,1017.01
2022-08-05T01:44:00.569Z,1017.1
2022-08-05T01:59:17.501Z,1017.21
2022-08-05T02:14:35.506Z,1017.22
2022-08-05T02:29:58.972Z,1017.19
2022-08-05T02:45:07.444Z,1017.2
2022-08-05T03:00:25.305Z,1017.1
2022-08-05T03:15:40.406Z,1017.13
2022-08-05T03:30:56.305Z,1017.16
2022-08-05T03:46:13.309Z,1017.11
2022-08-05T04:01:32.226Z,1017.2
2022-08-05T04:16:47.271Z,1017.17
2022-08-05T04:32:03.223Z,1017.42
2022-08-05T04:47:20.236Z,1017.31
2022-08-05T05:02:41.245Z,1017.54
2022-08-05T05:17:57.128Z,1017.6
2022-08-05T05:33:16.636Z,1017.61
2022-08-05T05:48:27.357Z,1017.56
2022-08-05T06:04:01.100Z,1017.7
2022-08-05T06:19:00.008Z,1017.79
2022-08-05T06:34:15.715Z,1017.61
2022-08-05T06:50:01.172Z,1017.63
2022-08-05T07:04:46.866Z,1017.78
2022-08-05T07:20:32.535Z,1017.93
2022-08-05T07:35:55.771Z,1017.88
2022-08-05T07:50:37.753Z,1017.75
2022-08-05T08:05:54.719Z,1017.66
2022-08-05T08:21:15.772Z,1017.56
2022-08-05T08:36:37.625Z,1017.39
2022-08-05T08:52:05.901Z,1017.44
2022-08-05T09:06:59.590Z,1017.47
2022-08-05T09:22:21.922Z,1017.41
2022-08-05T09:38:16.487Z,1017.3
2022-08-05T09:52:52.916Z,1017.06
2022-08-05T10:08:36.053Z,1016.9
2022-08-05T10:23:56.090Z,1016.83
2022-08-05T10:38:39.431Z,1016.59
2022-08-05T10:53:55.402Z,1016.44
2022-08-05T11:09:16.406Z,1016.25
2022-08-05T11:24:30.832Z,1016.05
2022-08-05T11:39:48.095Z,1015.78
2022-08-05T11:55:07.149Z,1015.53
2022-08-05T12:10:18.261Z,1015.26
2022-08-05T12:25:35.235Z,1015.03
2022-08-05T12:40:51.218Z,1014.93
2022-08-05T12:56:07.185Z,1014.71
2022-08-05T13:11:47.030Z,1014.41
2022-08-05T13:26:40.128Z,1014.34
2022-08-05T13:41:57.101Z,1014.15
2022-08-05T13:57:15.087Z,1014.07
2022-08-05T14:12:32.560Z,1014.13
2022-08-05T14:27:47.507Z,1014.25
2022-08-05T14:43:02.987Z,1014.21
2022-08-05T14:58:18.930Z,1014.35
2022-08-05T15:13:46.068Z,1014.66
2022-08-05T15:28:47.870Z,1014.71
2022-08-05T15:44:03.973Z,1014.81
2022-08-05T15:59:22.437Z,1015.22
2022-08-05T16:14:36.785Z,1015.45
2022-08-05T16:29:52.845Z,1015.76
2022-08-05T16:46:05.994Z,1016.37
2022-08-05T17:00:35.035Z,1017.17
2022-08-05T17:15:48.572Z,1018.21
2022-08-05T17:30:59.635Z,1019.15
2022-08-05T17:46:15.644Z,1020.18
2022-08-05T18:01:47.223Z,1020.44
2022-08-05T18:16:52.207Z,1020.59
2022-08-05T18:32:04.545Z,1020.44
2022-08-05T18:47:22.744Z,1020.47
2022-08-05T19:02:38.835Z,1020.94
2022-08-05T19:18:08.141Z,1021.53
2022-08-05T19:33:12.940Z,1021.79
2022-08-05T19:48:27.355Z,1021.83
2022-08-05T20:03:43.320Z,1021.62
2022-08-05T20:19:00.721Z,1021.24
2022-08-05T20:34:16.259Z,1021.07
2022-08-05T20:49:39.680Z,1021.2
2022-08-05T21:04:50.195Z,1021.18
2022-08-05T21:20:09.954Z,1021.07
2022-08-05T21:35:29.538Z,1020.97
2022-08-05T21:50:39.122Z,1021.16
2022-08-05T22:05:55.080Z,1021.45
2022-08-05T22:06:40.944Z,1021.45
2022-08-05T22:21:18.641Z,1021.58
2022-08-05T22:36:30.036Z,1021.59
2022-08-05T22:52:05.946Z,1021.61
2022-08-05T23:07:01.959Z,1021.67
2022-08-05T23:22:27.197Z,1021.64
2022-08-05T23:37:36.904Z,1021.69
2022-08-05T23:52:52.895Z,1021.67
